Time;durP1;ratioP1;P1;durP2;ratioP2;P2;SDS_P1;SDS_P2;PMS_P1;PMS_P2;Temp;Humidity;BMP_temperature;BMP_pressure;BME280_temperature;BME280_humidity;BME280_pressure;Samples;Min_cycle;Max_cycle;Signal;HPM_P1;HPM_P2
2023/12/28 00:00:18;;;;;;;;;;;3.70;87.20;;;;;;5089512;27;19935;-72
2023/12/28 00:02:51;;;;;;;;;;;3.80;86.90;;;;;;5087229;27;19935;-65
2023/12/28 00:05:24;;;;;;;;;;;3.70;86.90;;;;;;5090651;27;19924;-65
2023/12/28 00:07:57;;;;;;;;;;;3.70;86.90;;;;;;5092309;27;19927;-62
2023/12/28 00:10:32;;;;;;;;;;;3.70;86.90;;;;;;5107849;28;20665;-64
2023/12/28 00:13:05;;;;;;;;;;;3.60;86.70;;;;;;5105637;28;19928;-63
2023/12/28 00:15:38;;;;;;;;;;;3.50;87.20;;;;;;5107340;27;19976;-63
2023/12/28 00:18:11;;;;;;;;;;;3.40;87.40;;;;;;5106277;28;20394;-63
2023/12/28 00:20:44;;;;;;;;;;;3.50;87.30;;;;;;5106894;28;20461;-63
2023/12/28 00:23:17;;;;;;;;;;;3.60;87.00;;;;;;5106724;28;19928;-64
2023/12/28 00:25:52;;;;;;;;;;;3.50;87.00;;;;;;5106319;28;19953;-64
2023/12/28 00:28:25;;;;;;;;;;;3.50;86.90;;;;;;5106935;28;19935;-63
2023/12/28 00:30:52;;;;;;;;;;;3.60;86.90;;;;;;5072865;28;19954;-63
2023/12/28 00:33:25;;;;;;;;;;;3.60;86.80;;;;;;5093984;28;19924;-63
2023/12/28 00:35:58;;;;;;;;;;;3.50;86.70;;;;;;5101463;28;19924;-62
2023/12/28 00:38:31;;;;;;;;;;;3.50;86.70;;;;;;5083008;28;20007;-63
2023/12/28 00:41:06;;;;;;;;;;;3.50;86.70;;;;;;5106255;28;19927;-63
2023/12/28 00:43:39;;;;;;;;;;;3.40;86.70;;;;;;5084785;28;19924;-63
2023/12/28 00:46:12;;;;;;;;;;;3.40;86.60;;;;;;5084729;27;19935;-63
2023/12/28 00:48:45;;;;;;;;;;;3.50;86.60;;;;;;5080785;28;20015;-63
2023/12/28 00:51:18;;;;;;;;;;;3.50;86.90;;;;;;5084899;28;19924;-62
2023/12/28 00:53:51;;;;;;;;;;;3.50;86.70;;;;;;5086302;28;20142;-62
2023/12/28 00:56:26;;;;;;;;;;;3.50;86.70;;;;;;5086553;28;19936;-63
2023/12/28 00:59:01;;;;;;;;;;;3.50;86.90;;;;;;5086769;28;19959;-64
2023/12/28 01:01:34;;;;;;;;;;;3.50;87.00;;;;;;5103146;28;20010;-64
2023/12/28 01:04:07;;;;;;;;;;;3.50;87.30;;;;;;5106595;28;19924;-63
2023/12/28 01:06:41;;;;;;;;;;;3.50;87.20;;;;;;5106911;28;19988;-64
2023/12/28 01:09:14;;;;;;;;;;;3.60;87.30;;;;;;5087570;28;20354;-63
2023/12/28 01:11:49;;;;;;;;;;;3.60;87.30;;;;;;5103291;28;20751;-63
2023/12/28 01:14:22;;;;;;;;;;;3.60;87.30;;;;;;5086797;28;19928;-62
2023/12/28 01:16:55;;;;;;;;;;;3.60;87.30;;;;;;5105471;28;20367;-61
2023/12/28 01:19:28;;;;;;;;;;;3.60;87.20;;;;;;5089357;28;20383;-61
2023/12/28 01:22:01;;;;;;;;;;;3.50;87.30;;;;;;5088457;28;20007;-60
2023/12/28 01:24:34;;;;;;;;;;;3.50;87.40;;;;;;5088763;28;19924;-62
2023/12/28 01:27:09;;;;;;;;;;;3.50;87.30;;;;;;5088043;28;20007;-61
2023/12/28 01:29:42;;;;;;;;;;;3.50;87.40;;;;;;5088773;28;19932;-62
2023/12/28 01:32:15;;;;;;;;;;;3.50;87.40;;;;;;5090877;28;19971;-61
2023/12/28 01:34:48;;;;;;;;;;;3.60;87.50;;;;;;5089975;28;19928;-62
2023/12/28 01:37:21;;;;;;;;;;;3.50;87.70;;;;;;5088926;28;19935;-62
2023/12/28 01:39:54;;;;;;;;;;;3.50;87.80;;;;;;5089602;28;19928;-61
2023/12/28 01:42:30;;;;;;;;;;;3.60;87.70;;;;;;5088962;28;19932;-62
2023/12/28 01:45:03;;;;;;;;;;;3.70;87.80;;;;;;5090399;28;19932;-62
2023/12/28 01:47:37;;;;;;;;;;;3.60;87.90;;;;;;5088015;28;20027;-62
2023/12/28 01:50:10;;;;;;;;;;;3.70;88.10;;;;;;5086217;28;20287;-61
2023/12/28 01:52:43;;;;;;;;;;;3.70;88.00;;;;;;5106686;27;19927;-61
2023/12/28 01:55:10;;;;;;;;;;;3.70;88.10;;;;;;5089448;28;20441;-62
2023/12/28 01:57:45;;;;;;;;;;;3.60;88.30;;;;;;5090047;28;20007;-61
2023/12/28 02:00:18;;;;;;;;;;;3.60;88.50;;;;;;5087948;28;19935;-62
2023/12/28 02:02:45;;;;;;;;;;;3.60;88.60;;;;;;5083958;28;19935;-61
2023/12/28 02:05:18;;;;;;;;;;;3.60;88.70;;;;;;5108236;28;19931;-62
2023/12/28 02:07:51;;;;;;;;;;;3.70;88.80;;;;;;5107931;28;20022;-62
2023/12/28 02:10:25;;;;;;;;;;;3.70;88.70;;;;;;5108278;28;20400;-60
2023/12/28 02:13:00;;;;;;;;;;;3.70;88.60;;;;;;5087371;28;19923;-61
2023/12/28 02:15:33;;;;;;;;;;;3.70;88.80;;;;;;5108234;27;19963;-61
2023/12/28 02:18:10;;;;;;;;;;;3.70;88.70;;;;;;5089157;28;19927;-61
2023/12/28 02:20:44;;;;;;;;;;;3.80;88.70;;;;;;5099612;27;19924;-60
2023/12/28 02:23:17;;;;;;;;;;;3.80;88.70;;;;;;5108297;28;19969;-71
2023/12/28 02:25:52;;;;;;;;;;;3.90;88.70;;;;;;5105056;28;19927;-72
2023/12/28 02:28:25;;;;;;;;;;;3.90;88.60;;;;;;5089350;28;19924;-71
2023/12/28 02:30:59;;;;;;;;;;;3.90;89.00;;;;;;5086456;28;19923;-72
2023/12/28 02:33:36;;;;;;;;;;;3.90;88.70;;;;;;5106963;28;19985;-71
2023/12/28 02:36:10;;;;;;;;;;;4.00;88.70;;;;;;5108828;27;19927;-72
2023/12/28 02:38:44;;;;;;;;;;;4.00;88.90;;;;;;5109634;28;19946;-72
2023/12/28 02:41:19;;;;;;;;;;;4.10;88.90;;;;;;5109418;28;19931;-71
2023/12/28 02:43:52;;;;;;;;;;;4.20;88.90;;;;;;5091876;28;19931;-72
2023/12/28 02:46:25;;;;;;;;;;;4.30;88.80;;;;;;5108669;28;20025;-72
2023/12/28 02:48:59;;;;;;;;;;;4.40;89.00;;;;;;5108370;28;19924;-72
2023/12/28 02:51:33;;;;;;;;;;;4.40;89.10;;;;;;5100067;28;19953;-71
2023/12/28 02:54:06;;;;;;;;;;;4.40;89.00;;;;;;5109693;27;20446;-72
2023/12/28 02:56:41;;;;;;;;;;;4.40;89.00;;;;;;5109973;27;19986;-72
2023/12/28 02:59:14;;;;;;;;;;;4.50;89.10;;;;;;5110473;27;20362;-72
2023/12/28 03:01:47;;;;;;;;;;;4.60;89.20;;;;;;5106794;28;19966;-72
2023/12/28 03:04:20;;;;;;;;;;;4.60;89.00;;;;;;5085606;28;19948;-72
2023/12/28 03:06:47;;;;;;;;;;;4.70;88.80;;;;;;5091939;28;20271;-71
2023/12/28 03:09:20;;;;;;;;;;;4.70;89.00;;;;;;5098991;28;19932;-72
2023/12/28 03:11:55;;;;;;;;;;;4.70;89.20;;;;;;5084586;28;20386;-71
2023/12/28 03:14:28;;;;;;;;;;;4.80;89.00;;;;;;5108723;28;19969;-71
2023/12/28 03:16:55;;;;;;;;;;;4.80;89.00;;;;;;5095359;28;19935;-72
2023/12/28 03:19:29;;;;;;;;;;;4.90;89.40;;;;;;5086686;28;19924;-71
2023/12/28 03:22:03;;;;;;;;;;;4.90;89.40;;;;;;5086748;28;19924;-72
2023/12/28 03:24:37;;;;;;;;;;;5.00;89.40;;;;;;5102890;28;19947;-72
2023/12/28 03:27:12;;;;;;;;;;;5.10;89.20;;;;;;5086225;28;20345;-73
2023/12/28 03:29:46;;;;;;;;;;;5.10;89.10;;;;;;5087982;27;20290;-71
2023/12/28 03:32:18;;;;;;;;;;;5.20;89.60;;;;;;5088574;28;19935;-61
2023/12/28 03:34:51;;;;;;;;;;;5.30;89.60;;;;;;5088182;28;19935;-60
2023/12/28 03:37:25;;;;;;;;;;;5.30;89.50;;;;;;5085792;28;19935;-60
2023/12/28 03:39:58;;;;;;;;;;;5.40;89.90;;;;;;5082682;28;20393;-60
2023/12/28 03:42:33;;;;;;;;;;;5.50;90.10;;;;;;5088572;28;20291;-61
2023/12/28 03:45:07;;;;;;;;;;;5.60;90.20;;;;;;5106396;28;20050;-61
2023/12/28 03:47:40;;;;;;;;;;;5.60;90.30;;;;;;5089836;28;20022;-61
2023/12/28 03:50:13;;;;;;;;;;;5.60;90.30;;;;;;5106370;28;19931;-60
2023/12/28 03:52:40;;;;;;;;;;;5.70;90.30;;;;;;5107992;28;20396;-61
2023/12/28 03:55:13;;;;;;;;;;;5.70;90.40;;;;;;5101481;28;20022;-61
2023/12/28 03:57:48;;;;;;;;;;;5.70;90.70;;;;;;5107920;28;19928;-61
2023/12/28 04:00:23;;;;;;;;;;;5.90;90.70;;;;;;5107952;28;19964;-61
2023/12/28 04:02:59;;;;;;;;;;;5.90;90.50;;;;;;5084069;28;20345;-61
2023/12/28 04:05:32;;;;;;;;;;;5.90;90.50;;;;;;5087979;27;19927;-60
2023/12/28 04:08:07;;;;;;;;;;;6.10;90.60;;;;;;5088745;28;19924;-61
2023/12/28 04:10:39;;;;;;;;;;;6.10;90.80;;;;;;5107811;28;19973;-61
2023/12/28 04:13:14;;;;;;;;;;;6.10;90.90;;;;;;5090752;28;19981;-60
2023/12/28 04:15:47;;;;;;;;;;;6.10;91.20;;;;;;5077505;27;19970;-60
2023/12/28 04:18:14;;;;;;;;;;;6.20;91.50;;;;;;5094436;27;19932;-61
2023/12/28 04:20:48;;;;;;;;;;;6.10;91.60;;;;;;5072132;28;19924;-62
2023/12/28 04:23:21;;;;;;;;;;;6.20;91.70;;;;;;5089590;28;19928;-61
2023/12/28 04:25:54;;;;;;;;;;;6.20;91.90;;;;;;5107475;28;20340;-63
2023/12/28 04:28:29;;;;;;;;;;;6.20;91.90;;;;;;5099896;28;20432;-62
2023/12/28 04:31:03;;;;;;;;;;;6.20;92.00;;;;;;5088043;27;19932;-63
2023/12/28 04:33:36;;;;;;;;;;;6.20;92.00;;;;;;5104183;27;20369;-62
2023/12/28 04:36:10;;;;;;;;;;;6.20;92.00;;;;;;5072186;28;19932;-63
2023/12/28 04:38:42;;;;;;;;;;;6.30;92.10;;;;;;5065135;28;19932;-63
2023/12/28 04:41:15;;;;;;;;;;;6.30;92.10;;;;;;5090165;28;19923;-61
2023/12/28 04:43:50;;;;;;;;;;;6.40;92.10;;;;;;5082585;28;19977;-71
2023/12/28 04:46:23;;;;;;;;;;;6.40;92.10;;;;;;5105527;28;19930;-72
2023/12/28 04:48:56;;;;;;;;;;;6.40;92.10;;;;;;5108262;28;19980;-72
2023/12/28 04:51:29;;;;;;;;;;;6.40;91.80;;;;;;5086574;28;19924;-71
2023/12/28 04:54:03;;;;;;;;;;;6.30;91.70;;;;;;5109864;28;19928;-71
2023/12/28 04:56:35;;;;;;;;;;;6.40;91.60;;;;;;5088183;28;20394;-72
2023/12/28 04:59:16;;;;;;;;;;;6.30;91.50;;;;;;5088761;28;20401;-72
2023/12/28 05:01:49;;;;;;;;;;;6.40;91.50;;;;;;5109499;28;19927;-73
2023/12/28 05:04:22;;;;;;;;;;;6.40;91.70;;;;;;5103149;28;20330;-70
2023/12/28 05:06:55;;;;;;;;;;;6.40;91.80;;;;;;5091110;28;20401;-72
2023/12/28 05:09:28;;;;;;;;;;;6.40;91.90;;;;;;5089518;28;20018;-71
2023/12/28 05:12:02;;;;;;;;;;;6.40;91.80;;;;;;5091235;28;19928;-73
2023/12/28 05:14:37;;;;;;;;;;;6.50;92.00;;;;;;5090183;28;19924;-72
2023/12/28 05:17:10;;;;;;;;;;;6.50;92.10;;;;;;5090219;28;20405;-71
2023/12/28 05:19:43;;;;;;;;;;;6.60;92.10;;;;;;5090252;28;20459;-72
2023/12/28 05:22:16;;;;;;;;;;;6.50;92.00;;;;;;5088307;28;20014;-72
2023/12/28 05:24:49;;;;;;;;;;;6.60;92.00;;;;;;5089959;28;19982;-72
2023/12/28 05:27:22;;;;;;;;;;;6.60;92.00;;;;;;5090813;28;19942;-71
2023/12/28 05:29:57;;;;;;;;;;;6.60;92.00;;;;;;5090245;28;19934;-72
2023/12/28 05:32:30;;;;;;;;;;;6.60;91.90;;;;;;5089320;28;19932;-72
2023/12/28 05:34:57;;;;;;;;;;;6.70;91.90;;;;;;5090633;28;20362;-71
2023/12/28 05:37:30;;;;;;;;;;;6.70;91.80;;;;;;5089927;28;19930;-72
2023/12/28 05:40:04;;;;;;;;;;;6.70;91.70;;;;;;5108894;27;20424;-71
2023/12/28 05:42:37;;;;;;;;;;;6.80;91.60;;;;;;5109228;28;19924;-72
2023/12/28 05:45:12;;;;;;;;;;;6.80;91.60;;;;;;5110822;27;20294;-71
2023/12/28 05:47:45;;;;;;;;;;;6.80;91.50;;;;;;5109158;28;19928;-72
2023/12/28 05:50:18;;;;;;;;;;;6.90;91.50;;;;;;5107592;28;20367;-72
2023/12/28 05:52:51;;;;;;;;;;;6.90;91.40;;;;;;5109661;27;19924;-59
2023/12/28 05:55:25;;;;;;;;;;;6.90;91.40;;;;;;5108921;28;19981;-60
2023/12/28 05:57:57;;;;;;;;;;;6.90;91.40;;;;;;5111329;27;19923;-59
2023/12/28 06:00:38;;;;;;;;;;;6.90;91.50;;;;;;5108994;27;20018;-59
2023/12/28 06:03:11;;;;;;;;;;;6.90;91.60;;;;;;5096005;28;19923;-59
2023/12/28 06:05:45;;;;;;;;;;;7.00;91.60;;;;;;5108696;28;19927;-60
2023/12/28 06:08:17;;;;;;;;;;;7.00;91.50;;;;;;5107932;28;20396;-58
2023/12/28 06:10:50;;;;;;;;;;;7.00;91.60;;;;;;5111577;27;20012;-60
2023/12/28 06:13:23;;;;;;;;;;;7.10;91.60;;;;;;5109355;28;19947;-59
2023/12/28 06:15:58;;;;;;;;;;;7.00;91.50;;;;;;5107438;28;19924;-58
2023/12/28 06:18:32;;;;;;;;;;;7.00;91.50;;;;;;5107156;27;19927;-59
2023/12/28 06:21:06;;;;;;;;;;;7.10;91.70;;;;;;5105464;28;19934;-59
2023/12/28 06:23:38;;;;;;;;;;;7.00;91.50;;;;;;5094696;27;19924;-60
2023/12/28 06:26:11;;;;;;;;;;;7.10;91.70;;;;;;5099512;27;19934;-59
2023/12/28 06:28:44;;;;;;;;;;;7.10;91.70;;;;;;5108573;27;19932;-58
2023/12/28 06:31:19;;;;;;;;;;;7.20;91.70;;;;;;5110314;27;19928;-59
2023/12/28 06:33:51;;;;;;;;;;;7.10;91.60;;;;;;5108154;27;19931;-60
2023/12/28 06:36:24;;;;;;;;;;;7.20;91.70;;;;;;5108290;27;19934;-59
2023/12/28 06:38:58;;;;;;;;;;;7.20;91.70;;;;;;5106626;27;19924;-59
2023/12/28 06:41:30;;;;;;;;;;;7.20;91.70;;;;;;5106775;27;19932;-59
2023/12/28 06:43:57;;;;;;;;;;;7.30;91.80;;;;;;5105067;27;19928;-60
2023/12/28 06:46:32;;;;;;;;;;;7.30;91.70;;;;;;5100555;27;19924;-58
2023/12/28 06:49:05;;;;;;;;;;;7.30;91.70;;;;;;5108476;28;20271;-60
2023/12/28 06:51:38;;;;;;;;;;;7.30;91.70;;;;;;5107955;28;19935;-59
2023/12/28 06:54:11;;;;;;;;;;;7.40;91.70;;;;;;5108208;27;19981;-59
2023/12/28 06:56:44;;;;;;;;;;;7.40;91.50;;;;;;5108194;28;19938;-59
2023/12/28 06:59:18;;;;;;;;;;;7.40;91.60;;;;;;5109465;28;20006;-60
2023/12/28 07:01:52;;;;;;;;;;;7.40;91.60;;;;;;5106547;28;20014;-59
2023/12/28 07:04:29;;;;;;;;;;;7.40;91.60;;;;;;5107576;28;19924;-59
2023/12/28 07:07:02;;;;;;;;;;;7.50;91.50;;;;;;5108858;28;20536;-60
2023/12/28 07:09:34;;;;;;;;;;;7.50;91.50;;;;;;5073740;28;19932;-60
2023/12/28 07:12:07;;;;;;;;;;;7.50;91.50;;;;;;5088072;28;19954;-59
2023/12/28 07:14:40;;;;;;;;;;;7.50;91.50;;;;;;5087884;28;19931;-60
2023/12/28 07:17:17;;;;;;;;;;;7.50;91.50;;;;;;5089172;28;19959;-59
2023/12/28 07:19:49;;;;;;;;;;;7.50;91.50;;;;;;5096677;28;19924;-60
2023/12/28 07:22:16;;;;;;;;;;;7.50;91.50;;;;;;5094584;27;19927;-59
2023/12/28 07:24:49;;;;;;;;;;;7.50;91.50;;;;;;5090368;27;19932;-59
2023/12/28 07:27:22;;;;;;;;;;;7.50;91.50;;;;;;5091158;27;20366;-60
2023/12/28 07:29:56;;;;;;;;;;;7.50;91.50;;;;;;5092647;27;20255;-60
2023/12/28 07:32:30;;;;;;;;;;;7.60;91.40;;;;;;5108767;28;19994;-59
2023/12/28 07:35:04;;;;;;;;;;;7.50;91.30;;;;;;5107170;28;20022;-60
2023/12/28 07:37:36;;;;;;;;;;;7.60;91.30;;;;;;5107550;28;19977;-58
2023/12/28 07:40:10;;;;;;;;;;;7.60;91.20;;;;;;5107364;28;20389;-60
2023/12/28 07:42:42;;;;;;;;;;;7.60;91.10;;;;;;5107637;28;20408;-59
2023/12/28 07:45:17;;;;;;;;;;;7.60;91.10;;;;;;5108032;28;19928;-58
2023/12/28 07:47:52;;;;;;;;;;;7.60;91.00;;;;;;5108473;28;20382;-59
2023/12/28 07:50:25;;;;;;;;;;;7.60;91.00;;;;;;5105805;28;19938;-59
2023/12/28 07:52:58;;;;;;;;;;;7.60;91.00;;;;;;5106575;28;19931;-60
2023/12/28 07:55:31;;;;;;;;;;;7.70;91.00;;;;;;5108247;28;19928;-59
2023/12/28 07:58:04;;;;;;;;;;;7.60;91.00;;;;;;5106006;28;19924;-58
2023/12/28 08:00:38;;;;;;;;;;;7.60;91.00;;;;;;5108855;28;19992;-60
2023/12/28 08:03:15;;;;;;;;;;;7.60;90.90;;;;;;5106508;28;20876;-59
2023/12/28 08:05:48;;;;;;;;;;;7.70;90.80;;;;;;5105901;28;19931;-59
2023/12/28 08:08:21;;;;;;;;;;;7.70;90.70;;;;;;5107151;28;20018;-60
2023/12/28 08:10:54;;;;;;;;;;;7.80;90.70;;;;;;5099808;28;19932;-59
2023/12/28 08:13:27;;;;;;;;;;;7.80;90.70;;;;;;5097930;27;19954;-65
2023/12/28 08:16:00;;;;;;;;;;;7.80;90.70;;;;;;5107635;28;19934;-66
2023/12/28 08:18:35;;;;;;;;;;;7.80;90.60;;;;;;5108371;28;19962;-66
2023/12/28 08:21:08;;;;;;;;;;;7.80;90.70;;;;;;5105057;28;19959;-65
2023/12/28 08:23:41;;;;;;;;;;;7.80;90.70;;;;;;5090631;28;19931;-66
2023/12/28 08:26:14;;;;;;;;;;;7.90;90.50;;;;;;5111532;28;20424;-67
2023/12/28 08:28:47;;;;;;;;;;;7.90;90.40;;;;;;5110419;28;20419;-65
2023/12/28 08:31:21;;;;;;;;;;;7.80;90.40;;;;;;5109844;28;19963;-65
2023/12/28 08:33:55;;;;;;;;;;;7.90;90.30;;;;;;5110894;28;19927;-66
2023/12/28 08:36:29;;;;;;;;;;;7.90;90.30;;;;;;5112311;28;19977;-66
2023/12/28 08:39:03;;;;;;;;;;;8.00;90.20;;;;;;5108980;28;20551;-66
2023/12/28 08:41:37;;;;;;;;;;;8.10;90.10;;;;;;5111083;28;19927;-68
2023/12/28 08:44:10;;;;;;;;;;;8.10;89.90;;;;;;5110692;28;20397;-65
2023/12/28 08:46:42;;;;;;;;;;;8.10;89.80;;;;;;5110793;28;20413;-65
2023/12/28 08:49:17;;;;;;;;;;;8.10;89.70;;;;;;5107980;28;19940;-65
2023/12/28 08:51:51;;;;;;;;;;;8.20;89.60;;;;;;5105778;27;19974;-67
2023/12/28 08:54:23;;;;;;;;;;;8.20;89.50;;;;;;5093548;27;20396;-68
2023/12/28 08:56:56;;;;;;;;;;;8.20;89.50;;;;;;5093306;27;19959;-63
2023/12/28 08:59:30;;;;;;;;;;;8.20;89.50;;;;;;5093740;27;19924;-67
2023/12/28 09:02:02;;;;;;;;;;;8.20;89.50;;;;;;5093543;27;19924;-66
2023/12/28 09:04:38;;;;;;;;;;;8.20;89.40;;;;;;5092612;27;19935;-67
2023/12/28 09:07:13;;;;;;;;;;;8.30;89.30;;;;;;5093299;27;19924;-64
2023/12/28 09:09:46;;;;;;;;;;;8.30;89.10;;;;;;5092215;27;19928;-66
2023/12/28 09:12:18;;;;;;;;;;;8.30;89.10;;;;;;5093139;27;20370;-65
2023/12/28 09:14:52;;;;;;;;;;;8.30;89.00;;;;;;5109430;28;20563;-65
2023/12/28 09:17:26;;;;;;;;;;;8.40;88.80;;;;;;5109867;27;20029;-65
2023/12/28 09:19:54;;;;;;;;;;;8.40;88.80;;;;;;5109795;28;19932;-66
2023/12/28 09:22:26;;;;;;;;;;;8.40;88.70;;;;;;5104112;28;19930;-72
2023/12/28 09:25:00;;;;;;;;;;;8.50;88.60;;;;;;5110506;28;20004;-72
2023/12/28 09:27:33;;;;;;;;;;;8.50;88.60;;;;;;5108946;28;20014;-72
2023/12/28 09:30:06;;;;;;;;;;;8.50;88.70;;;;;;5107879;28;20358;-72
2023/12/28 09:32:40;;;;;;;;;;;8.50;88.70;;;;;;5108334;27;19953;-72
2023/12/28 09:35:14;;;;;;;;;;;8.50;88.70;;;;;;5089458;28;20387;-72
2023/12/28 09:37:41;;;;;;;;;;;8.50;88.60;;;;;;5088369;28;19931;-72
2023/12/28 09:40:14;;;;;;;;;;;8.60;88.50;;;;;;5090712;28;19932;-72
2023/12/28 09:42:49;;;;;;;;;;;8.60;88.40;;;;;;5090052;28;19947;-73
2023/12/28 09:45:23;;;;;;;;;;;8.60;88.40;;;;;;5090299;28;20421;-72
2023/12/28 09:47:56;;;;;;;;;;;8.60;88.40;;;;;;5089122;28;19935;-72
2023/12/28 09:50:30;;;;;;;;;;;8.70;88.20;;;;;;5085795;28;19931;-71
2023/12/28 09:53:04;;;;;;;;;;;8.70;88.10;;;;;;5089284;28;20409;-72
2023/12/28 09:55:37;;;;;;;;;;;8.70;88.10;;;;;;5090177;27;19927;-71
2023/12/28 09:58:11;;;;;;;;;;;8.70;88.00;;;;;;5092934;27;20386;-71
2023/12/28 10:00:45;;;;;;;;;;;8.70;88.00;;;;;;5092645;27;19939;-73
2023/12/28 10:03:18;;;;;;;;;;;8.70;87.90;;;;;;5091716;27;19924;-72
2023/12/28 10:05:52;;;;;;;;;;;8.70;87.90;;;;;;5099173;27;20370;-72
2023/12/28 10:08:26;;;;;;;;;;;8.80;87.80;;;;;;5092504;27;19932;-72
2023/12/28 10:11:00;;;;;;;;;;;8.80;87.70;;;;;;5094291;27;20427;-73
2023/12/28 10:13:34;;;;;;;;;;;8.80;87.80;;;;;;5091863;27;19931;-72
2023/12/28 10:16:08;;;;;;;;;;;8.80;87.70;;;;;;5092780;27;19942;-70
2023/12/28 10:18:42;;;;;;;;;;;8.80;87.60;;;;;;5092486;27;20015;-73
2023/12/28 10:21:17;;;;;;;;;;;8.90;87.50;;;;;;5091919;27;20010;-73
2023/12/28 10:23:51;;;;;;;;;;;8.90;87.50;;;;;;5111421;27;20286;-73
2023/12/28 10:26:24;;;;;;;;;;;8.90;87.50;;;;;;5108210;28;20311;-71
2023/12/28 10:28:59;;;;;;;;;;;9.00;87.40;;;;;;5110825;27;20055;-72
2023/12/28 10:31:33;;;;;;;;;;;9.00;87.20;;;;;;5109921;28;19924;-73
2023/12/28 10:34:06;;;;;;;;;;;9.00;87.20;;;;;;5110976;27;20174;-71
2023/12/28 10:36:41;;;;;;;;;;;9.00;87.20;;;;;;5110106;28;20378;-71
2023/12/28 10:39:17;;;;;;;;;;;9.00;87.10;;;;;;5108934;27;19930;-71
2023/12/28 10:41:52;;;;;;;;;;;9.10;86.90;;;;;;5109265;28;21116;-72
2023/12/28 10:44:28;;;;;;;;;;;9.10;86.80;;;;;;5109612;27;19981;-70
2023/12/28 10:47:02;;;;;;;;;;;9.10;86.80;;;;;;5102624;27;20391;-71
2023/12/28 10:49:37;;;;;;;;;;;9.20;86.80;;;;;;5106362;28;19965;-72
2023/12/28 10:52:14;;;;;;;;;;;9.20;86.80;;;;;;5108344;28;19967;-72
2023/12/28 10:54:53;;;;;;;;;;;9.20;86.70;;;;;;5107370;27;20381;-72
2023/12/28 10:57:29;;;;;;;;;;;9.20;86.60;;;;;;5109834;28;19928;-71
2023/12/28 11:00:17;;;;;;;;;;;9.20;86.50;;;;;;5102347;28;20450;-71
2023/12/28 11:02:53;;;;;;;;;;;9.20;86.40;;;;;;5108146;28;19959;-72
2023/12/28 11:05:27;;;;;;;;;;;9.30;86.30;;;;;;5105360;28;19935;-70
2023/12/28 11:08:03;;;;;;;;;;;9.30;86.30;;;;;;5108815;28;19954;-71
2023/12/28 11:10:36;;;;;;;;;;;9.30;86.10;;;;;;5107447;27;19931;-71
2023/12/28 11:13:10;;;;;;;;;;;9.30;86.00;;;;;;5102705;28;19970;-71
2023/12/28 11:15:44;;;;;;;;;;;9.30;85.90;;;;;;5090614;27;20046;-72
2023/12/28 11:18:18;;;;;;;;;;;9.30;85.80;;;;;;5102452;28;19923;-72
2023/12/28 11:20:52;;;;;;;;;;;9.40;85.70;;;;;;5105817;28;19964;-70
2023/12/28 11:23:26;;;;;;;;;;;9.40;85.50;;;;;;5107034;28;20006;-72
2023/12/28 11:26:00;;;;;;;;;;;9.40;85.40;;;;;;5104165;28;20380;-72
2023/12/28 11:28:33;;;;;;;;;;;9.40;85.10;;;;;;5105606;27;19928;-73
2023/12/28 11:31:06;;;;;;;;;;;9.40;85.00;;;;;;5105782;27;19932;-72
2023/12/28 11:33:44;;;;;;;;;;;9.50;85.20;;;;;;5107641;28;19928;-73
2023/12/28 11:36:35;;;;;;;;;;;9.50;85.10;;;;;;5085931;28;24462;-71
2023/12/28 11:39:18;;;;;;;;;;;9.50;84.90;;;;;;5086469;28;19924;-70
2023/12/28 11:41:52;;;;;;;;;;;9.50;84.70;;;;;;5085585;28;19927;-71
2023/12/28 11:44:26;;;;;;;;;;;9.60;84.70;;;;;;5087302;28;20335;-60
2023/12/28 11:47:00;;;;;;;;;;;9.60;84.60;;;;;;5085091;28;19931;-60
2023/12/28 11:49:33;;;;;;;;;;;9.60;84.30;;;;;;5086265;28;19931;-60
2023/12/28 11:52:06;;;;;;;;;;;9.60;84.20;;;;;;5087801;28;19935;-59
2023/12/28 11:54:49;;;;;;;;;;;9.60;84.30;;;;;;5086805;28;19932;-60
2023/12/28 11:57:23;;;;;;;;;;;9.60;84.20;;;;;;5086076;28;19927;-59
2023/12/28 11:59:53;;;;;;;;;;;9.70;84.10;;;;;;5086777;28;19982;-59
2023/12/28 12:02:58;;;;;;;;;;;9.70;83.90;;;;;;5087537;28;20019;-60
2023/12/28 12:05:31;;;;;;;;;;;9.70;83.90;;;;;;5085462;28;19923;-60
2023/12/28 12:08:04;;;;;;;;;;;9.70;84.00;;;;;;5084198;28;19939;-60
2023/12/28 12:10:39;;;;;;;;;;;9.70;83.80;;;;;;5107031;28;20010;-59
2023/12/28 12:13:12;;;;;;;;;;;9.70;83.60;;;;;;5098863;28;20142;-64
2023/12/28 12:15:45;;;;;;;;;;;9.70;83.70;;;;;;5098429;28;19962;-59
2023/12/28 12:18:18;;;;;;;;;;;9.70;83.70;;;;;;5105327;28;19931;-60
2023/12/28 12:20:51;;;;;;;;;;;9.70;83.70;;;;;;5104247;28;19935;-60
2023/12/28 12:23:24;;;;;;;;;;;9.70;83.60;;;;;;5095735;28;19928;-61
2023/12/28 12:25:58;;;;;;;;;;;9.70;83.50;;;;;;5086503;28;19928;-60
2023/12/28 12:28:32;;;;;;;;;;;9.70;83.50;;;;;;5085469;28;19993;-60
2023/12/28 12:31:05;;;;;;;;;;;9.80;83.40;;;;;;5084680;28;19932;-60
2023/12/28 12:33:38;;;;;;;;;;;9.80;83.50;;;;;;5085928;28;19924;-59
2023/12/28 12:36:11;;;;;;;;;;;9.80;83.40;;;;;;5086579;28;20370;-60
2023/12/28 12:38:44;;;;;;;;;;;9.80;83.40;;;;;;5106378;28;20001;-60
2023/12/28 12:41:18;;;;;;;;;;;9.80;83.40;;;;;;5106065;28;19928;-60
2023/12/28 12:43:52;;;;;;;;;;;9.80;83.30;;;;;;5101694;28;19935;-60
2023/12/28 12:46:25;;;;;;;;;;;9.80;83.30;;;;;;5104544;28;19928;-60
2023/12/28 12:48:58;;;;;;;;;;;9.80;83.20;;;;;;5105328;28;20286;-60
2023/12/28 12:51:31;;;;;;;;;;;9.90;83.60;;;;;;5106857;28;19935;-60
2023/12/28 12:54:04;;;;;;;;;;;9.90;83.10;;;;;;5105916;28;19959;-62
2023/12/28 12:56:39;;;;;;;;;;;10.00;83.10;;;;;;5105009;28;19931;-62
2023/12/28 12:59:15;;;;;;;;;;;10.00;83.20;;;;;;5107271;28;19947;-62
2023/12/28 13:01:49;;;;;;;;;;;10.20;82.60;;;;;;5107225;28;19928;-62
2023/12/28 13:04:22;;;;;;;;;;;10.20;82.30;;;;;;5104870;28;19936;-62
2023/12/28 13:06:55;;;;;;;;;;;10.20;82.00;;;;;;5106788;28;20396;-62
2023/12/28 13:09:28;;;;;;;;;;;10.20;81.90;;;;;;5106906;28;19924;-61
2023/12/28 13:12:03;;;;;;;;;;;10.20;81.70;;;;;;5108960;28;20343;-62
2023/12/28 13:14:44;;;;;;;;;;;10.20;81.70;;;;;;5110448;28;19939;-62
2023/12/28 13:17:17;;;;;;;;;;;10.30;81.40;;;;;;5110202;28;20400;-62
2023/12/28 13:19:51;;;;;;;;;;;10.30;81.10;;;;;;5109284;28;19955;-61
2023/12/28 13:22:24;;;;;;;;;;;10.30;81.20;;;;;;5109534;28;20377;-61
2023/12/28 13:24:57;;;;;;;;;;;10.40;81.10;;;;;;5109626;28;19960;-61
2023/12/28 13:27:32;;;;;;;;;;;10.40;81.10;;;;;;5109789;28;19928;-61
2023/12/28 13:30:06;;;;;;;;;;;10.40;81.00;;;;;;5109728;28;19924;-61
2023/12/28 13:32:39;;;;;;;;;;;10.30;81.10;;;;;;5109551;28;19960;-63
2023/12/28 13:35:12;;;;;;;;;;;10.30;81.00;;;;;;5103079;27;19934;-62
2023/12/28 13:37:45;;;;;;;;;;;10.30;81.20;;;;;;5108582;28;19985;-63
2023/12/28 13:40:18;;;;;;;;;;;10.30;81.20;;;;;;5110367;28;20042;-61
2023/12/28 13:42:46;;;;;;;;;;;10.30;81.80;;;;;;5109975;28;19928;-61
2023/12/28 13:45:19;;;;;;;;;;;10.20;81.80;;;;;;5107982;28;19928;-63
2023/12/28 13:47:45;;;;;;;;;;;10.20;81.80;;;;;;5100629;27;19928;-62
2023/12/28 13:50:19;;;;;;;;;;;10.30;81.70;;;;;;5107328;28;19931;-63
2023/12/28 13:52:53;;;;;;;;;;;10.30;81.70;;;;;;5108681;28;21563;-63
2023/12/28 13:55:19;;;;;;;;;;;10.30;81.70;;;;;;5108937;28;19931;-62
2023/12/28 13:57:54;;;;;;;;;;;10.30;81.70;;;;;;5109675;28;22141;-62
2023/12/28 14:00:28;;;;;;;;;;;10.30;81.80;;;;;;5109622;28;20026;-62
2023/12/28 14:03:01;;;;;;;;;;;10.30;81.80;;;;;;5109834;28;20453;-70
2023/12/28 14:05:27;;;;;;;;;;;10.30;81.90;;;;;;5109973;27;20008;-71
2023/12/28 14:08:01;;;;;;;;;;;10.30;81.80;;;;;;5109031;28;19928;-73
2023/12/28 14:10:34;;;;;;;;;;;10.30;81.80;;;;;;5109749;28;19934;-70
2023/12/28 14:13:02;;;;;;;;;;;10.20;82.00;;;;;;5103894;28;19928;-69
2023/12/28 14:15:37;;;;;;;;;;;10.30;81.90;;;;;;5108129;28;19931;-70
2023/12/28 14:18:11;;;;;;;;;;;10.30;82.20;;;;;;5108197;28;19965;-71
2023/12/28 14:20:38;;;;;;;;;;;10.30;82.20;;;;;;5106055;27;19927;-70
2023/12/28 14:23:12;;;;;;;;;;;10.30;82.30;;;;;;5084778;28;19984;-71
2023/12/28 14:25:51;;;;;;;;;;;10.30;82.30;;;;;;5107071;28;20275;-70
2023/12/28 14:28:26;;;;;;;;;;;10.20;82.40;;;;;;5100724;28;19924;-70
2023/12/28 14:30:59;;;;;;;;;;;10.20;82.50;;;;;;5107892;28;19967;-72
2023/12/28 14:33:33;;;;;;;;;;;10.20;82.60;;;;;;5109070;28;19928;-70
2023/12/28 14:36:09;;;;;;;;;;;10.10;83.00;;;;;;5108647;28;19984;-69
2023/12/28 14:38:43;;;;;;;;;;;10.10;82.90;;;;;;5108135;28;19931;-72
2023/12/28 14:41:16;;;;;;;;;;;10.10;82.80;;;;;;5109043;27;19928;-72
2023/12/28 14:43:50;;;;;;;;;;;10.10;82.90;;;;;;5109874;28;20449;-71
2023/12/28 14:46:17;;;;;;;;;;;10.10;83.00;;;;;;5108564;27;19931;-70
2023/12/28 14:48:50;;;;;;;;;;;10.10;83.20;;;;;;5108581;28;19923;-70
2023/12/28 14:51:16;;;;;;;;;;;10.10;83.20;;;;;;5108666;27;19928;-71
2023/12/28 14:53:50;;;;;;;;;;;10.10;83.40;;;;;;5108391;28;20374;-71
2023/12/28 14:56:23;;;;;;;;;;;10.00;83.50;;;;;;5108805;27;19924;-70
2023/12/28 14:58:57;;;;;;;;;;;10.00;83.70;;;;;;5106087;28;20029;-71
2023/12/28 15:01:31;;;;;;;;;;;10.00;83.90;;;;;;5088766;28;20351;-71
2023/12/28 15:04:04;;;;;;;;;;;10.00;83.90;;;;;;5107818;28;19928;-70